Time;durP1;ratioP1;P1;durP2;ratioP2;P2;SDS_P1;SDS_P2;PMS_P1;PMS_P2;Temp;Humidity;BMP_temperature;BMP_pressure;BME280_temperature;BME280_humidity;BME280_pressure;Samples;Min_cycle;Max_cycle;Signal;HPM_P1;HPM_P2
2023/08/29 00:01:46;;;;;;;11.60;10.35;;;12.20;99.90;;;;;;5034545;28;20060;-66
2023/08/29 00:04:14;;;;;;;12.52;9.48;;;12.20;99.90;;;;;;5033199;28;20029;-66
2023/08/29 00:06:41;;;;;;;11.65;9.93;;;12.20;99.90;;;;;;5037854;28;20600;-67
2023/08/29 00:09:08;;;;;;;12.98;10.50;;;12.20;99.90;;;;;;5038501;28;20041;-66
2023/08/29 00:11:40;;;;;;;11.40;10.30;;;12.20;99.90;;;;;;5037853;28;20041;-66
2023/08/29 00:14:12;;;;;;;11.65;10.48;;;12.10;99.90;;;;;;5039186;28;20530;-66
2023/08/29 00:16:44;;;;;;;12.00;10.68;;;12.10;99.90;;;;;;5044202;28;20501;-66
2023/08/29 00:19:16;;;;;;;11.75;9.50;;;12.20;99.90;;;;;;5037890;28;20518;-66
2023/08/29 00:21:48;;;;;;;11.77;10.57;;;12.20;99.90;;;;;;5037209;28;20037;-66
2023/08/29 00:24:15;;;;;;;11.48;10.05;;;12.20;99.90;;;;;;5035387;28;20037;-66
2023/08/29 00:26:47;;;;;;;10.60;9.50;;;12.20;99.90;;;;;;5032296;28;20053;-66
2023/08/29 00:31:54;;;;;;;9.30;8.35;;;12.10;99.90;;;;;;4978786;28;20418;-66
2023/08/29 00:34:26;;;;;;;10.57;9.00;;;12.10;99.90;;;;;;4988774;28;20130;-67
2023/08/29 00:36:58;;;;;;;11.57;10.38;;;12.10;99.90;;;;;;4983823;28;20058;-67
2023/08/29 00:39:30;;;;;;;12.63;9.75;;;12.10;99.90;;;;;;4985435;28;20046;-66
2023/08/29 00:42:02;;;;;;;11.85;9.90;;;12.00;99.90;;;;;;4988228;28;20057;-67
2023/08/29 00:44:34;;;;;;;11.50;10.32;;;12.00;99.90;;;;;;4977545;28;20043;-67
2023/08/29 00:47:07;;;;;;;11.55;9.65;;;12.00;99.90;;;;;;4974410;28;20066;-67
2023/08/29 00:49:39;;;;;;;10.37;9.27;;;12.00;99.90;;;;;;4977086;28;20035;-67
2023/08/29 00:52:13;;;;;;;10.60;9.45;;;11.90;99.90;;;;;;4979979;28;20097;-66
2023/08/29 00:54:46;;;;;;;10.45;9.43;;;11.90;99.90;;;;;;4989014;28;20047;-66
2023/08/29 00:57:12;;;;;;;11.23;10.00;;;12.00;99.90;;;;;;4978312;28;20041;-67
2023/08/29 00:59:44;;;;;;;12.48;9.63;;;12.00;99.90;;;;;;5001046;28;20443;-67
2023/08/29 01:02:17;;;;;;;11.68;10.13;;;12.00;99.90;;;;;;5001035;28;20050;-67
2023/08/29 01:04:49;;;;;;;11.15;9.95;;;12.10;99.90;;;;;;4988728;28;20046;-66
2023/08/29 01:07:21;;;;;;;11.50;9.93;;;12.10;99.90;;;;;;4983048;28;20039;-66
2023/08/29 01:09:53;;;;;;;11.32;10.18;;;12.00;99.90;;;;;;4974825;28;20135;-66
2023/08/29 01:12:42;;;;;;;10.82;9.73;;;12.00;99.90;;;;;;4986865;28;20128;-66
2023/08/29 01:15:21;;;;;;;11.68;9.95;;;12.00;99.90;;;;;;4978186;28;20100;-66
2023/08/29 01:18:05;;;;;;;11.30;9.65;;;12.00;99.90;;;;;;4988325;28;20500;-66
2023/08/29 01:20:34;;;;;;;10.25;8.77;;;11.90;99.90;;;;;;4980989;28;20138;-66
2023/08/29 01:23:23;;;;;;;11.45;10.25;;;11.90;99.90;;;;;;4983632;28;20551;-66
2023/08/29 01:26:13;;;;;;;12.18;10.15;;;11.80;99.90;;;;;;4978596;28;20415;-66
2023/08/29 01:28:46;;;;;;;12.02;9.52;;;11.80;99.90;;;;;;4980499;28;20046;-66
2023/08/29 01:31:14;;;;;;;11.23;9.63;;;11.70;99.90;;;;;;4976541;28;20039;-67
2023/08/29 01:33:47;;;;;;;10.90;9.40;;;11.70;99.90;;;;;;4977003;28;20447;-66
2023/08/29 01:36:19;;;;;;;11.38;9.10;;;11.70;99.90;;;;;;4991932;28;20046;-67
2023/08/29 01:38:51;;;;;;;12.80;9.40;;;11.60;99.90;;;;;;4997339;28;20440;-66
2023/08/29 01:41:18;;;;;;;11.10;9.90;;;11.70;99.90;;;;;;4987421;28;20035;-66
2023/08/29 01:43:49;;;;;;;12.30;10.23;;;11.60;99.90;;;;;;4979738;28;20511;-67
2023/08/29 01:46:21;;;;;;;13.00;9.90;;;11.60;99.90;;;;;;4979447;28;20323;-67
2023/08/29 01:48:54;;;;;;;11.60;9.25;;;11.60;99.90;;;;;;4988275;28;20046;-67
2023/08/29 01:51:26;;;;;;;11.57;10.30;;;11.60;99.90;;;;;;4984865;28;20389;-67
2023/08/29 01:53:58;;;;;;;10.57;9.43;;;11.60;99.90;;;;;;4980091;28;20053;-67
2023/08/29 01:56:32;;;;;;;11.13;9.88;;;11.60;99.90;;;;;;4980344;28;20550;-67
2023/08/29 01:59:04;;;;;;;;;;;11.60;99.90;;;;;;4983218;28;20101;-66
2023/08/29 02:01:38;;;;;;;12.55;9.32;;;11.60;99.90;;;;;;4984047;28;20012;-67
2023/08/29 02:04:11;;;;;;;13.00;10.40;;;11.60;99.90;;;;;;5001620;28;20038;-67
2023/08/29 02:06:43;;;;;;;12.02;10.43;;;11.50;99.90;;;;;;4989700;28;20098;-67
2023/08/29 02:09:11;;;;;;;12.90;10.95;;;11.50;99.90;;;;;;4980245;28;20113;-67
2023/08/29 02:11:43;;;;;;;14.43;11.13;;;11.60;99.90;;;;;;4981541;28;20038;-66
2023/08/29 02:14:14;;;;;;;15.52;11.85;;;11.50;99.90;;;;;;4990175;28;20049;-66
2023/08/29 02:16:46;;;;;;;12.75;11.35;;;11.60;99.90;;;;;;4982393;28;20073;-66
2023/08/29 02:19:19;;;;;;;15.05;12.07;;;11.70;99.90;;;;;;4983586;28;20042;-66
2023/08/29 02:21:51;;;;;;;16.73;12.38;;;11.70;99.90;;;;;;4989174;28;20051;-66
2023/08/29 02:24:23;;;;;;;13.32;11.82;;;11.70;99.90;;;;;;4990310;28;20043;-66
2023/08/29 02:26:56;;;;;;;15.07;11.65;;;11.80;99.90;;;;;;4986736;28;20034;-66
2023/08/29 02:29:23;;;;;;;13.50;12.10;;;11.70;99.90;;;;;;4985863;28;20477;-67
2023/08/29 02:31:55;;;;;;;12.32;10.93;;;11.70;99.90;;;;;;4989914;28;20054;-66
2023/08/29 02:34:24;;;;;;;16.05;11.93;;;11.80;99.90;;;;;;4992701;28;20726;-66
2023/08/29 02:36:56;;;;;;;17.05;12.55;;;11.80;99.90;;;;;;5006328;28;20042;-66
2023/08/29 02:39:28;;;;;;;14.95;12.27;;;11.80;99.90;;;;;;4979558;28;20035;-66
2023/08/29 02:42:03;;;;;;;13.90;12.10;;;11.80;99.90;;;;;;4978809;28;20046;-66
2023/08/29 02:44:35;;;;;;;13.98;12.18;;;11.80;99.90;;;;;;4996733;28;20042;-66
2023/08/29 02:47:07;;;;;;;15.52;12.43;;;11.80;99.90;;;;;;4989224;28;20031;-66
2023/08/29 02:49:39;;;;;;;13.65;11.88;;;11.80;99.90;;;;;;4990795;28;20053;-66
2023/08/29 02:52:10;;;;;;;15.45;13.48;;;11.80;99.90;;;;;;4989240;28;20042;-66
2023/08/29 02:54:42;;;;;;;14.98;12.73;;;11.80;99.90;;;;;;4981372;28;20055;-66
2023/08/29 02:57:14;;;;;;;16.63;12.40;;;11.80;99.90;;;;;;4992156;28;20043;-66
2023/08/29 02:59:41;;;;;;;15.38;11.98;;;11.80;99.90;;;;;;4997406;28;20044;-66
2023/08/29 03:02:13;;;;;;;15.20;12.30;;;11.80;99.90;;;;;;4971727;28;20538;-66
2023/08/29 03:04:45;;;;;;;14.32;11.63;;;11.80;99.90;;;;;;4997606;28;20060;-66
2023/08/29 03:07:17;;;;;;;15.07;12.80;;;11.80;99.90;;;;;;4988206;28;20190;-66
2023/08/29 03:09:43;;;;;;;16.98;13.55;;;11.80;99.90;;;;;;4988877;28;20121;-66
2023/08/29 03:12:15;;;;;;;16.10;13.82;;;11.80;99.90;;;;;;4989525;28;20035;-66
2023/08/29 03:14:42;;;;;;;14.43;11.98;;;11.80;99.90;;;;;;4984895;28;20070;-66
2023/08/29 03:17:09;;;;;;;13.95;12.10;;;11.80;99.90;;;;;;4988920;28;20547;-66
2023/08/29 03:19:42;;;;;;;13.37;11.83;;;11.80;99.90;;;;;;4978944;28;20050;-66
2023/08/29 03:22:09;;;;;;;13.90;12.40;;;11.80;99.90;;;;;;4988173;28;20466;-66
2023/08/29 03:24:45;;;;;;;15.00;13.10;;;11.80;99.90;;;;;;5000532;28;20536;-66
2023/08/29 03:27:17;;;;;;;17.33;13.55;;;11.90;99.90;;;;;;4989335;28;20483;-66
2023/08/29 03:29:44;;;;;;;15.48;13.25;;;11.90;99.90;;;;;;4981742;28;20038;-66
2023/08/29 03:32:16;;;;;;;14.93;13.25;;;11.80;99.90;;;;;;4982638;28;20046;-66
2023/08/29 03:34:42;;;;;;;15.00;12.48;;;11.80;99.90;;;;;;4982207;28;20132;-66
2023/08/29 03:37:14;;;;;;;16.02;12.93;;;11.80;99.90;;;;;;4989272;28;20052;-66
2023/08/29 03:39:46;;;;;;;15.65;13.45;;;11.80;99.90;;;;;;4997184;28;20133;-66
2023/08/29 03:42:18;;;;;;;14.20;12.70;;;11.80;99.90;;;;;;4972024;28;20043;-66
2023/08/29 03:44:50;;;;;;;15.68;13.55;;;11.80;99.90;;;;;;4974932;28;20051;-66
2023/08/29 03:47:22;;;;;;;13.10;11.70;;;11.80;99.90;;;;;;4993598;28;20538;-66
2023/08/29 03:49:54;;;;;;;13.20;10.48;;;11.90;99.90;;;;;;4990412;28;20039;-66
2023/08/29 03:52:27;;;;;;;13.13;11.73;;;11.80;99.90;;;;;;4982996;28;20070;-66
2023/08/29 03:54:59;;;;;;;12.70;11.40;;;11.90;99.90;;;;;;4983154;28;20049;-66
2023/08/29 03:57:28;;;;;;;14.05;12.02;;;11.90;99.90;;;;;;4989092;28;20045;-66
2023/08/29 04:00:06;;;;;;;12.02;10.73;;;11.90;99.90;;;;;;4999855;28;20053;-66
2023/08/29 04:02:41;;;;;;;16.55;11.88;;;11.90;99.90;;;;;;4987254;28;20424;-66
2023/08/29 04:05:14;;;;;;;12.80;11.50;;;11.90;99.90;;;;;;4987862;28;20507;-66
2023/08/29 04:07:42;;;;;;;12.10;9.93;;;11.90;99.90;;;;;;4973495;28;20050;-66
2023/08/29 04:10:09;;;;;;;12.95;10.95;;;11.90;99.90;;;;;;4998946;28;20097;-66
2023/08/29 04:12:41;;;;;;;11.75;10.32;;;11.90;99.90;;;;;;4998507;28;20050;-66
2023/08/29 04:15:13;;;;;;;10.82;9.02;;;11.90;99.90;;;;;;4985041;28;20527;-66
2023/08/29 04:17:45;;;;;;;11.32;9.55;;;11.90;99.90;;;;;;4982939;28;20046;-66
2023/08/29 04:20:17;;;;;;;11.40;9.52;;;11.90;99.90;;;;;;4971572;28;20047;-66
2023/08/29 04:22:49;;;;;;;11.48;9.07;;;11.90;99.90;;;;;;4989205;28;20056;-66
2023/08/29 04:25:21;;;;;;;16.05;10.63;;;11.90;99.90;;;;;;4987984;28;20049;-66
2023/08/29 04:27:48;;;;;;;10.32;9.07;;;12.00;99.90;;;;;;4993597;28;20046;-66
2023/08/29 04:30:16;;;;;;;9.50;8.52;;;12.00;99.90;;;;;;4986813;28;20038;-66
2023/08/29 04:32:48;;;;;;;9.50;7.82;;;12.00;99.90;;;;;;4989679;28;20051;-66
2023/08/29 04:35:16;;;;;;;11.88;8.10;;;11.90;99.90;;;;;;4989316;28;20495;-66
2023/08/29 04:37:48;;;;;;;8.52;6.93;;;11.90;99.90;;;;;;4985128;28;20051;-66
2023/08/29 04:40:21;;;;;;;7.30;6.60;;;11.90;99.90;;;;;;4988636;28;20038;-67
2023/08/29 04:42:53;;;;;;;7.55;6.70;;;11.90;99.90;;;;;;4983162;28;20659;-66
2023/08/29 04:45:25;;;;;;;8.35;6.32;;;11.90;99.90;;;;;;4999227;28;20096;-66
2023/08/29 04:47:51;;;;;;;9.43;6.20;;;11.90;99.90;;;;;;4996851;28;20045;-66
2023/08/29 04:50:25;;;;;;;6.72;5.93;;;11.90;99.90;;;;;;4986909;28;20495;-66
2023/08/29 04:52:58;;;;;;;8.82;6.13;;;11.90;99.90;;;;;;4991424;28;20039;-66
2023/08/29 04:55:30;;;;;;;5.25;4.50;;;12.00;99.90;;;;;;4990032;28;20078;-66
2023/08/29 04:58:03;;;;;;;7.60;5.83;;;11.90;99.90;;;;;;4980985;28;20098;-66
2023/08/29 05:00:35;;;;;;;5.43;4.90;;;11.80;99.90;;;;;;4983891;28;20438;-66
2023/08/29 05:03:07;;;;;;;5.32;4.80;;;11.80;99.90;;;;;;4989599;28;20054;-66
2023/08/29 05:05:45;;;;;;;6.53;5.38;;;11.90;99.90;;;;;;4986186;28;20423;-66
2023/08/29 05:08:14;;;;;;;6.32;5.75;;;11.90;99.90;;;;;;4973723;28;20038;-66
2023/08/29 05:10:46;;;;;;;5.72;5.13;;;11.90;99.90;;;;;;4995662;28;20141;-66
2023/08/29 05:13:18;;;;;;;6.65;5.43;;;11.90;99.90;;;;;;4992902;28;20049;-66
2023/08/29 05:15:50;;;;;;;7.15;5.75;;;11.90;99.90;;;;;;4990829;28;20071;-66
2023/08/29 05:18:17;;;;;;;6.13;5.45;;;11.90;99.90;;;;;;4970470;28;20484;-66
2023/08/29 05:20:49;;;;;;;10.52;6.72;;;11.90;99.90;;;;;;4983124;28;20124;-66
2023/08/29 05:23:21;;;;;;;9.02;6.00;;;11.90;99.90;;;;;;4979548;28;20053;-66
2023/08/29 05:25:53;;;;;;;8.00;5.82;;;11.90;99.90;;;;;;4985139;28;20038;-66
2023/08/29 05:28:25;;;;;;;9.98;6.65;;;11.90;99.90;;;;;;4988781;28;20046;-66
2023/08/29 05:30:58;;;;;;;8.37;6.27;;;11.90;99.90;;;;;;4989642;28;20050;-66
2023/08/29 05:33:29;;;;;;;6.93;6.22;;;12.00;99.90;;;;;;4985680;28;20053;-66
2023/08/29 05:36:01;;;;;;;7.47;6.63;;;11.90;99.90;;;;;;4983967;28;20047;-66
2023/08/29 05:38:28;;;;;;;8.02;7.13;;;11.90;99.90;;;;;;4979330;28;20039;-66
2023/08/29 05:41:00;;;;;;;6.90;6.20;;;11.90;99.90;;;;;;4994897;28;20043;-66
2023/08/29 05:43:32;;;;;;;7.32;5.93;;;11.90;99.90;;;;;;4978950;28;20035;-66
2023/08/29 05:46:04;;;;;;;7.43;6.72;;;11.90;99.90;;;;;;4988721;28;20527;-66
2023/08/29 05:48:31;;;;;;;8.32;7.38;;;11.90;99.90;;;;;;4986027;28;20767;-66
2023/08/29 05:51:03;;;;;;;6.25;5.65;;;11.90;99.90;;;;;;4986594;28;20050;-66
2023/08/29 05:53:30;;;;;;;6.93;6.18;;;11.90;99.90;;;;;;4989454;28;20504;-66
2023/08/29 05:55:57;;;;;;;7.32;6.63;;;11.90;99.90;;;;;;4988446;28;20477;-66
2023/08/29 05:58:28;;;;;;;7.95;7.10;;;11.90;99.90;;;;;;4990531;28;20161;-66
2023/08/29 06:01:00;;;;;;;6.95;6.15;;;11.90;99.90;;;;;;4981075;28;20040;-66
2023/08/29 06:03:34;;;;;;;6.15;5.55;;;11.90;99.90;;;;;;4986701;28;20393;-66
2023/08/29 06:06:07;;;;;;;7.03;6.32;;;11.90;99.90;;;;;;4995078;28;20039;-66
2023/08/29 06:08:40;;;;;;;7.13;5.93;;;12.00;99.90;;;;;;4986963;28;20057;-66
2023/08/29 06:11:11;;;;;;;6.15;5.55;;;12.00;99.90;;;;;;4986623;28;20289;-66
2023/08/29 06:13:38;;;;;;;6.38;5.70;;;11.90;99.90;;;;;;4983340;28;20046;-66
2023/08/29 06:16:10;;;;;;;7.55;6.03;;;12.00;99.90;;;;;;4989924;28;20047;-66
2023/08/29 06:18:43;;;;;;;7.28;6.15;;;12.00;99.90;;;;;;4992156;28;20042;-66
2023/08/29 06:21:15;;;;;;;6.60;5.93;;;12.00;99.90;;;;;;4992222;28;20035;-66
2023/08/29 06:23:47;;;;;;;6.57;5.65;;;12.00;99.90;;;;;;4979889;28;20049;-66
2023/08/29 06:26:18;;;;;;;8.15;5.85;;;12.00;99.90;;;;;;4979731;28;20049;-66
2023/08/29 06:28:50;;;;;;;6.15;5.55;;;12.00;99.90;;;;;;4980576;28;20044;-66
2023/08/29 06:31:23;;;;;;;5.90;5.30;;;12.00;99.90;;;;;;4991508;28;20089;-66
2023/08/29 06:33:55;;;;;;;4.90;4.40;;;12.00;99.90;;;;;;4986734;28;20490;-66
2023/08/29 06:36:22;;;;;;;5.47;4.97;;;12.00;99.90;;;;;;4982078;28;20289;-66
2023/08/29 06:38:54;;;;;;;5.25;4.75;;;12.00;99.90;;;;;;4986402;28;20042;-66
2023/08/29 06:41:26;;;;;;;4.53;4.03;;;12.00;99.90;;;;;;4986087;28;20045;-66
2023/08/29 06:43:57;;;;;;;6.13;4.90;;;12.00;99.90;;;;;;4984319;28;20533;-66
2023/08/29 06:46:29;;;;;;;5.80;5.07;;;12.00;99.90;;;;;;4981112;28;20034;-66
2023/08/29 06:48:56;;;;;;;6.47;5.10;;;12.10;99.90;;;;;;4989793;28;20045;-66
2023/08/29 06:51:24;;;;;;;5.78;5.18;;;12.10;99.90;;;;;;4981142;28;20038;-66
2023/08/29 06:53:55;;;;;;;5.05;4.65;;;12.10;99.90;;;;;;4982587;28;20137;-66
2023/08/29 06:56:27;;;;;;;4.72;4.22;;;12.10;99.90;;;;;;4986323;28;20043;-66
2023/08/29 06:58:54;;;;;;;5.25;4.72;;;12.10;99.90;;;;;;4983281;28;20045;-66
2023/08/29 07:01:21;;;;;;;5.40;4.90;;;12.10;99.90;;;;;;4982091;28;20100;-66
2023/08/29 07:03:53;;;;;;;4.47;4.07;;;12.10;99.90;;;;;;4985506;28;20045;-66
2023/08/29 07:06:25;;;;;;;5.30;4.80;;;12.10;99.90;;;;;;4980589;28;20419;-66
2023/08/29 07:08:52;;;;;;;5.72;4.35;;;12.10;99.90;;;;;;4979840;28;20093;-66
2023/08/29 07:11:23;;;;;;;4.50;4.10;;;12.10;99.90;;;;;;4980319;28;20054;-66
2023/08/29 07:13:55;;;;;;;5.75;4.40;;;12.00;99.90;;;;;;4980490;28;20047;-65
2023/08/29 07:16:30;;;;;;;5.40;4.90;;;12.10;99.90;;;;;;4983399;28;20616;-66
2023/08/29 07:19:03;;;;;;;4.97;4.45;;;12.10;99.90;;;;;;4985392;28;20046;-65
2023/08/29 07:21:34;;;;;;;5.43;4.40;;;12.10;99.90;;;;;;4983667;28;20045;-66
2023/08/29 07:24:06;;;;;;;5.28;4.78;;;12.10;99.90;;;;;;4989387;28;20031;-66
2023/08/29 07:26:38;;;;;;;6.57;5.00;;;12.10;99.90;;;;;;4979387;28;20121;-66
2023/08/29 07:29:05;;;;;;;4.55;4.03;;;12.10;99.90;;;;;;4988743;28;20056;-66
2023/08/29 07:31:37;;;;;;;5.47;4.97;;;12.10;99.90;;;;;;4981958;28;20080;-66
2023/08/29 07:34:09;;;;;;;4.60;4.20;;;12.10;99.90;;;;;;4982638;28;20043;-66
2023/08/29 07:36:41;;;;;;;5.57;4.13;;;12.10;99.90;;;;;;4984204;28;20435;-66
2023/08/29 07:39:11;;;;;;;5.47;4.32;;;12.10;99.90;;;;;;4989519;28;20047;-65
2023/08/29 07:41:43;;;;;;;4.60;4.20;;;12.10;99.90;;;;;;4987814;28;20084;-66
2023/08/29 07:44:15;;;;;;;4.63;4.15;;;12.10;99.90;;;;;;4989665;28;20420;-66
2023/08/29 07:46:47;;;;;;;3.78;3.22;;;12.10;99.90;;;;;;4980012;28;20046;-66
2023/08/29 07:49:20;;;;;;;3.90;3.60;;;12.20;99.90;;;;;;4991835;28;20069;-66
2023/08/29 07:51:55;;;;;;;5.68;3.70;;;12.20;99.90;;;;;;4983816;28;20121;-66
2023/08/29 07:54:22;;;;;;;4.25;3.85;;;12.10;99.90;;;;;;4984057;28;20084;-66
2023/08/29 07:56:54;;;;;;;5.65;3.45;;;12.10;99.90;;;;;;4984784;28;20039;-66
2023/08/29 07:59:26;;;;;;;4.18;3.58;;;12.20;99.90;;;;;;4980496;28;20038;-65
2023/08/29 08:01:58;;;;;;;4.50;3.38;;;12.20;99.90;;;;;;4996194;28;20109;-66
2023/08/29 08:04:30;;;;;;;4.25;3.35;;;12.20;99.90;;;;;;4998884;28;20410;-66
2023/08/29 08:07:02;;;;;;;3.70;3.40;;;12.20;99.90;;;;;;4981875;28;20047;-66
2023/08/29 08:09:35;;;;;;;6.13;3.55;;;12.20;99.90;;;;;;4987261;28;20083;-66
2023/08/29 08:12:07;;;;;;;3.78;3.22;;;12.20;99.90;;;;;;4993761;28;20527;-66
2023/08/29 08:14:38;;;;;;;5.82;3.78;;;12.20;99.90;;;;;;4972883;28;20137;-66
2023/08/29 08:17:10;;;;;;;4.47;3.83;;;12.20;99.90;;;;;;4985411;28;20046;-66
2023/08/29 08:19:42;;;;;;;6.28;4.32;;;12.20;99.90;;;;;;4988079;28;20106;-66
2023/08/29 08:22:10;;;;;;;4.72;4.18;;;12.20;99.90;;;;;;4982942;28;20046;-66
2023/08/29 08:24:42;;;;;;;4.80;4.32;;;12.30;99.90;;;;;;4987693;28;20105;-66
2023/08/29 08:27:14;;;;;;;5.05;4.50;;;12.30;99.90;;;;;;4982571;28;20046;-66
2023/08/29 08:29:46;;;;;;;4.65;4.25;;;12.30;99.90;;;;;;4983628;28;20061;-65
2023/08/29 08:32:18;;;;;;;5.30;4.80;;;12.30;99.90;;;;;;4981048;28;20657;-66
2023/08/29 08:34:50;;;;;;;5.15;4.13;;;12.30;99.90;;;;;;4991715;28;20515;-66
2023/08/29 08:37:23;;;;;;;4.82;4.32;;;12.30;99.90;;;;;;4972982;28;20046;-66
2023/08/29 08:39:49;;;;;;;4.03;3.63;;;12.30;99.90;;;;;;4978691;28;20586;-66
2023/08/29 08:42:22;;;;;;;4.43;4.03;;;12.30;99.90;;;;;;4989616;28;20520;-66
2023/08/29 08:44:54;;;;;;;4.05;3.63;;;12.30;99.90;;;;;;4984368;28;20047;-66
2023/08/29 08:47:21;;;;;;;4.22;3.83;;;12.30;99.90;;;;;;4983365;28;20045;-66
2023/08/29 08:49:53;;;;;;;5.25;3.58;;;12.30;99.90;;;;;;4987034;28;20043;-66
2023/08/29 08:52:25;;;;;;;3.50;3.13;;;12.40;99.90;;;;;;4984750;28;20575;-66
2023/08/29 08:54:57;;;;;;;3.95;3.00;;;12.30;99.90;;;;;;4984776;28;20518;-66
2023/08/29 08:57:29;;;;;;;3.20;2.90;;;12.40;99.90;;;;;;4978314;28;20048;-66
2023/08/29 09:00:01;;;;;;;3.88;3.00;;;12.40;99.90;;;;;;4974336;28;20050;-66
2023/08/29 09:02:33;;;;;;;3.53;3.22;;;12.40;99.90;;;;;;4995172;28;20042;-66
2023/08/29 09:05:06;;;;;;;3.40;3.10;;;12.40;99.90;;;;;;5002489;28;20389;-66
2023/08/29 09:07:39;;;;;;;3.53;3.22;;;12.30;99.90;;;;;;4987523;28;20606;-66
2023/08/29 09:10:15;;;;;;;3.10;2.80;;;12.30;99.90;;;;;;4987728;28;20047;-66
2023/08/29 09:12:49;;;;;;;4.22;2.88;;;12.40;99.90;;;;;;4987121;28;20125;-66
2023/08/29 09:15:22;;;;;;;3.25;2.83;;;12.40;99.90;;;;;;4986627;28;20049;-66
2023/08/29 09:17:54;;;;;;;3.10;2.80;;;12.40;99.90;;;;;;4990502;28;20054;-66
2023/08/29 09:20:29;;;;;;;3.97;2.65;;;12.40;99.90;;;;;;4981972;28;20046;-66
2023/08/29 09:23:01;;;;;;;3.10;2.80;;;12.40;99.90;;;;;;4990661;28;20185;-66
2023/08/29 09:25:33;;;;;;;2.35;2.15;;;12.50;99.90;;;;;;4980971;28;20046;-65
2023/08/29 09:28:10;;;;;;;2.65;2.08;;;12.50;99.90;;;;;;4990903;28;20414;-66
2023/08/29 09:30:42;;;;;;;3.33;2.47;;;12.60;99.90;;;;;;5001514;28;20583;-66
2023/08/29 09:33:19;;;;;;;2.65;2.40;;;12.60;99.90;;;;;;4988495;28;20124;-66
2023/08/29 09:35:46;;;;;;;2.30;2.10;;;12.60;99.90;;;;;;4987283;28;20100;-66
2023/08/29 09:38:18;;;;;;;2.80;1.80;;;12.70;99.90;;;;;;4987391;28;20070;-66
2023/08/29 09:40:55;;;;;;;1.63;1.52;;;12.70;99.90;;;;;;4989426;28;20404;-66
2023/08/29 09:43:28;;;;;;;2.08;1.80;;;12.60;99.90;;;;;;4981884;28;20164;-66
2023/08/29 09:45:56;;;;;;;1.92;1.60;;;12.60;99.90;;;;;;4999734;28;20674;-66
2023/08/29 09:48:28;;;;;;;2.08;1.88;;;12.60;99.90;;;;;;4978560;28;20513;-66
2023/08/29 09:51:00;;;;;;;2.53;1.80;;;12.70;99.90;;;;;;4988401;28;20052;-66
2023/08/29 09:53:33;;;;;;;2.00;1.47;;;12.70;99.90;;;;;;4987922;28;20041;-66
2023/08/29 09:56:08;;;;;;;1.80;1.70;;;12.70;99.90;;;;;;5002720;28;20309;-66
2023/08/29 09:58:40;;;;;;;3.53;1.75;;;12.70;99.90;;;;;;4986167;28;20499;-66
2023/08/29 10:01:10;;;;;;;2.60;2.10;;;12.70;99.90;;;;;;5001467;28;20047;-67
2023/08/29 10:03:43;;;;;;;2.28;1.95;;;12.70;99.90;;;;;;4998193;28;20038;-66
2023/08/29 10:06:15;;;;;;;2.33;2.13;;;12.80;99.90;;;;;;4980309;28;20126;-66
2023/08/29 10:08:59;;;;;;;3.38;2.00;;;12.80;99.90;;;;;;4978160;28;20045;-66
2023/08/29 10:11:32;;;;;;;2.95;2.17;;;12.70;99.90;;;;;;4979332;28;20049;-66
2023/08/29 10:14:05;;;;;;;1.97;1.77;;;12.80;99.90;;;;;;4988403;28;20047;-67
2023/08/29 10:16:32;;;;;;;2.58;2.20;;;12.80;99.90;;;;;;4987839;28;20854;-66
2023/08/29 10:19:04;;;;;;;2.17;1.97;;;12.80;99.90;;;;;;4987699;28;20118;-66
2023/08/29 10:21:37;;;;;;;2.53;2.33;;;12.80;99.90;;;;;;4988058;28;20555;-66
2023/08/29 10:24:11;;;;;;;2.40;2.20;;;12.80;99.90;;;;;;5004072;28;20101;-66
2023/08/29 10:26:44;;;;;;;2.45;2.08;;;12.90;99.90;;;;;;4980480;28;20124;-66
2023/08/29 10:29:17;;;;;;;2.50;2.30;;;12.90;99.90;;;;;;4980727;28;20124;-66
2023/08/29 10:31:49;;;;;;;2.93;2.73;;;12.80;99.90;;;;;;4989200;28;20054;-66
2023/08/29 10:34:30;;;;;;;3.58;2.83;;;12.80;99.90;;;;;;4979639;28;20290;-66
2023/08/29 10:37:03;;;;;;;2.90;2.60;;;12.90;99.90;;;;;;4987238;28;20062;-66
2023/08/29 10:39:32;;;;;;;2.70;2.50;;;12.90;99.90;;;;;;4992094;28;20120;-66
2023/08/29 10:42:08;;;;;;;3.33;2.78;;;12.80;99.90;;;;;;4982508;28;20096;-66
2023/08/29 10:44:42;;;;;;;4.70;2.92;;;12.80;99.90;;;;;;4985702;28;20038;-66
2023/08/29 10:47:16;;;;;;;4.00;3.28;;;12.90;99.90;;;;;;5001673;28;20121;-66
2023/08/29 10:49:44;;;;;;;3.55;3.25;;;12.90;99.90;;;;;;4984206;28;20057;-66
2023/08/29 10:52:13;;;;;;;4.60;3.33;;;12.90;99.90;;;;;;4980953;28;20055;-66
2023/08/29 10:54:45;;;;;;;4.07;3.40;;;13.00;99.90;;;;;;4979720;28;20054;-66
2023/08/29 10:57:28;;;;;;;3.53;3.20;;;13.00;99.90;;;;;;4981348;28;20039;-66
2023/08/29 11:00:00;;;;;;;3.15;2.60;;;13.00;99.90;;;;;;4997267;28;20700;-66
2023/08/29 11:02:32;;;;;;;3.88;3.03;;;13.00;99.90;;;;;;4987068;28;20431;-66
2023/08/29 11:05:05;;;;;;;2.40;2.20;;;13.00;99.90;;;;;;4983386;28;20094;-66
2023/08/29 11:07:38;;;;;;;2.30;2.10;;;13.10;99.90;;;;;;4991263;28;20058;-66
2023/08/29 11:10:11;;;;;;;2.35;2.00;;;13.10;99.90;;;;;;4990181;28;20097;-66
2023/08/29 11:13:07;;;;;;;3.03;2.10;;;13.10;99.90;;;;;;4990946;28;20463;-66
2023/08/29 11:15:48;;;;;;;1.70;1.60;;;13.10;99.90;;;;;;4978804;28;20050;-66
2023/08/29 11:18:32;;;;;;;1.60;1.50;;;13.10;99.90;;;;;;4978736;28;20074;-66
2023/08/29 11:21:07;;;;;;;2.10;1.60;;;13.10;99.90;;;;;;4980089;28;20042;-66
2023/08/29 11:23:40;;;;;;;1.88;1.65;;;13.10;99.90;;;;;;4985583;28;20129;-66
2023/08/29 11:26:12;;;;;;;1.90;1.40;;;13.10;99.90;;;;;;4983886;28;20042;-66
2023/08/29 11:28:47;;;;;;;2.08;1.88;;;13.10;99.90;;;;;;4982221;28;20515;-66
2023/08/29 11:31:18;;;;;;;1.60;1.50;;;13.10;99.90;;;;;;4982543;28;20042;-66
2023/08/29 11:33:50;;;;;;;2.42;1.70;;;13.10;99.90;;;;;;4984232;28;20539;-66
2023/08/29 11:36:22;;;;;;;2.83;1.98;;;13.10;99.90;;;;;;4998093;28;20508;-66
2023/08/29 11:38:57;;;;;;;2.08;1.67;;;13.10;99.90;;;;;;4980055;28;20053;-66
2023/08/29 11:41:29;;;;;;;2.08;1.52;;;13.10;99.90;;;;;;4982349;28;20053;-66
2023/08/29 11:44:01;;;;;;;1.60;1.42;;;13.10;99.90;;;;;;4980167;28;20409;-66
2023/08/29 11:46:33;;;;;;;2.78;2.05;;;13.10;99.90;;;;;;4981385;28;20530;-66
2023/08/29 11:49:15;;;;;;;2.30;1.67;;;13.20;99.90;;;;;;4984864;28;20070;-66
2023/08/29 11:51:48;;;;;;;2.15;1.80;;;13.20;99.90;;;;;;4996617;28;20390;-66
2023/08/29 11:54:36;;;;;;;2.45;1.83;;;13.20;99.90;;;;;;4978768;28;20545;-66
2023/08/29 11:57:11;;;;;;;1.65;1.40;;;13.20;99.90;;;;;;4989159;28;20069;-65
2023/08/29 11:59:46;;;;;;;2.05;1.60;;;13.10;99.90;;;;;;4982141;28;20050;-66
2023/08/29 12:02:21;;;;;;;1.83;1.73;;;13.10;99.90;;;;;;4979751;28;20125;-66
2023/08/29 12:04:53;;;;;;;1.83;1.50;;;13.10;99.90;;;;;;4989128;28;20105;-66
2023/08/29 12:07:20;;;;;;;2.60;2.40;;;13.10;99.90;;;;;;4979654;28;20472;-66
2023/08/29 12:09:53;;;;;;;2.10;1.50;;;13.10;99.90;;;;;;5001108;28;20125;-67
2023/08/29 12:12:34;;;;;;;2.13;1.83;;;13.20;99.90;;;;;;4987114;28;20104;-66
2023/08/29 12:15:11;;;;;;;1.92;1.73;;;13.20;99.90;;;;;;4980192;28;20045;-66
2023/08/29 12:17:44;;;;;;;2.17;1.98;;;13.20;99.90;;;;;;4978243;28;20038;-66
2023/08/29 12:20:13;;;;;;;1.70;1.60;;;13.20;99.90;;;;;;4987099;28;20046;-66
2023/08/29 12:22:48;;;;;;;2.67;2.47;;;13.20;99.90;;;;;;4982023;28;20043;-66
2023/08/29 12:25:20;;;;;;;2.15;1.95;;;13.20;99.90;;;;;;4979414;28;20429;-66
2023/08/29 12:27:48;;;;;;;2.90;2.22;;;13.20;99.90;;;;;;4979137;28;20121;-66
2023/08/29 12:30:15;;;;;;;3.00;2.40;;;13.20;99.90;;;;;;4979024;28;20038;-66
2023/08/29 12:32:47;;;;;;;3.53;1.80;;;13.30;99.90;;;;;;4984904;28;20100;-66
2023/08/29 12:35:18;;;;;;;1.92;1.40;;;13.30;99.90;;;;;;4982423;28;20130;-66
2023/08/29 12:37:50;;;;;;;1.63;1.40;;;13.40;99.90;;;;;;4979981;28;20050;-66
2023/08/29 12:40:21;;;;;;;1.75;1.50;;;13.40;99.90;;;;;;4978772;28;20039;-65
2023/08/29 12:42:53;;;;;;;1.73;1.58;;;13.40;99.90;;;;;;4986074;28;20041;-65
2023/08/29 12:45:25;;;;;;;1.65;1.50;;;13.40;99.90;;;;;;4978600;28;20039;-65
2023/08/29 12:47:54;;;;;;;1.30;1.20;;;13.50;99.90;;;;;;4989082;28;20403;-66
2023/08/29 12:50:26;;;;;;;1.73;1.48;;;13.40;99.90;;;;;;4978928;28;20061;-65
2023/08/29 12:52:58;;;;;;;1.55;1.40;;;13.40;99.90;;;;;;4980159;28;20046;-65
2023/08/29 12:55:30;;;;;;;2.85;1.40;;;13.50;99.90;;;;;;4989550;28;20149;-65
2023/08/29 12:58:05;;;;;;;2.13;1.70;;;13.60;99.90;;;;;;4982252;28;20038;-66
2023/08/29 13:00:38;;;;;;;1.50;1.38;;;13.60;99.90;;;;;;4989390;28;20137;-66
2023/08/29 13:03:05;;;;;;;1.88;1.55;;;13.70;99.90;;;;;;4984570;28;20086;-66
2023/08/29 13:05:38;;;;;;;1.33;1.23;;;13.80;99.90;;;;;;4974478;28;20046;-65
2023/08/29 13:08:10;;;;;;;6.25;1.52;;;13.80;99.90;;;;;;4977900;28;20034;-65